createdAt,value
2022-08-02T00:00:15.818Z,100.00
2022-08-02T00:02:46.177Z,100.00
2022-08-02T00:05:14.733Z,100.00
2022-08-02T00:07:42.997Z,100.00
2022-08-02T00:10:12.467Z,100.00
2022-08-02T00:12:40.747Z,100.00
2022-08-02T00:15:10.542Z,100.00
2022-08-02T00:17:45.549Z,100.00
2022-08-02T00:20:15.418Z,100.00
2022-08-02T00:22:43.156Z,100.00
2022-08-02T00:25:10.995Z,100.00
2022-08-02T00:27:38.819Z,100.00
2022-08-02T00:30:07.499Z,100.00
2022-08-02T00:32:35.279Z,100.00
2022-08-02T00:35:04.880Z,100.00
2022-08-02T00:37:32.628Z,100.00
2022-08-02T00:40:02.141Z,100.00
2022-08-02T00:42:29.805Z,100.00
2022-08-02T00:44:58.852Z,100.00
2022-08-02T00:47:26.616Z,100.00
2022-08-02T00:49:54.308Z,100.00
2022-08-02T00:52:23.639Z,100.00
2022-08-02T00:54:51.653Z,100.00
2022-08-02T00:57:19.439Z,100.00
2022-08-02T00:59:47.325Z,100.00
2022-08-02T01:02:15.404Z,100.00
2022-08-02T01:04:43.337Z,100.00
2022-08-02T01:07:13.035Z,100.00
2022-08-02T01:09:43.101Z,100.00
2022-08-02T01:12:11.979Z,100.00
2022-08-02T01:14:41.643Z,100.00
2022-08-02T01:17:13.285Z,100.00
2022-08-02T01:19:50.446Z,100.00
2022-08-02T01:23:00.477Z,100.00
2022-08-02T01:25:49.893Z,100.00
2022-08-02T01:28:34.158Z,100.00
2022-08-02T01:31:05.611Z,100.00
2022-08-02T01:33:39.042Z,100.00
2022-08-02T01:36:12.726Z,100.00
2022-08-02T01:38:43.880Z,100.00
2022-08-02T01:41:16.185Z,100.00
2022-08-02T01:43:47.575Z,100.00
2022-08-02T01:46:17.698Z,100.00
2022-08-02T01:48:48.392Z,100.00
2022-08-02T01:51:19.638Z,100.00
2022-08-02T01:53:50.960Z,100.00
2022-08-02T01:56:20.584Z,100.00
2022-08-02T01:58:50.860Z,100.00
2022-08-02T02:01:22.348Z,100.00
2022-08-02T02:03:50.779Z,100.00
2022-08-02T02:06:19.957Z,100.00
2022-08-02T02:08:50.381Z,100.00
2022-08-02T02:12:11.629Z,100.00
2022-08-02T02:14:09.196Z,100.00
2022-08-02T02:16:38.306Z,100.00
2022-08-02T02:19:08.138Z,100.00
2022-08-02T02:21:36.142Z,100.00
2022-08-02T02:24:05.832Z,100.00
2022-08-02T02:26:37.448Z,100.00
2022-08-02T02:29:12.655Z,100.00
2022-08-02T02:31:43.769Z,100.00
2022-08-02T02:34:15.691Z,100.00
2022-08-02T02:36:51.389Z,100.00
2022-08-02T02:39:23.277Z,100.00
2022-08-02T02:41:54.315Z,100.00
2022-08-02T02:44:23.928Z,100.00
2022-08-02T02:46:54.910Z,100.00
2022-08-02T02:49:24.100Z,100.00
2022-08-02T02:51:53.059Z,100.00
2022-08-02T02:54:32.812Z,100.00
2022-08-02T02:57:03.624Z,100.00
2022-08-02T02:59:34.107Z,100.00
2022-08-02T03:02:03.437Z,100.00
2022-08-02T03:04:55.227Z,100.00
2022-08-02T03:07:19.954Z,100.00
2022-08-02T03:09:54.018Z,100.00
2022-08-02T03:12:27.184Z,100.00
2022-08-02T03:15:00.789Z,100.00
2022-08-02T03:17:38.795Z,100.00
2022-08-02T03:20:10.644Z,100.00
2022-08-02T03:22:38.505Z,100.00
2022-08-02T03:25:07.596Z,100.00
2022-08-02T03:27:36.566Z,100.00
2022-08-02T03:30:07.827Z,100.00
2022-08-02T03:32:37.213Z,100.00
2022-08-02T03:35:07.858Z,100.00
2022-08-02T03:37:38.027Z,100.00
2022-08-02T03:40:09.539Z,100.00
2022-08-02T03:42:37.378Z,100.00
2022-08-02T03:45:10.125Z,100.00
2022-08-02T03:47:39.094Z,100.00
2022-08-02T03:50:08.671Z,100.00
2022-08-02T03:52:37.519Z,100.00
2022-08-02T03:55:05.909Z,100.00
2022-08-02T03:57:33.913Z,100.00
2022-08-02T04:00:01.622Z,100.00
2022-08-02T04:02:30.718Z,100.00
2022-08-02T04:04:58.430Z,100.00
2022-08-02T04:08:02.567Z,100.00
2022-08-02T04:10:13.876Z,100.00
2022-08-02T04:12:41.920Z,100.00
2022-08-02T04:15:12.824Z,100.00
2022-08-02T04:17:44.720Z,100.00
2022-08-02T04:20:18.947Z,100.00
2022-08-02T04:22:50.389Z,100.00
2022-08-02T04:25:21.158Z,100.00
2022-08-02T04:28:16.542Z,100.00
2022-08-02T04:30:47.308Z,100.00
2022-08-02T04:33:16.931Z,100.00
2022-08-02T04:35:45.516Z,100.00
2022-08-02T04:38:14.609Z,100.00
2022-08-02T04:40:50.694Z,100.00
2022-08-02T04:43:18.400Z,100.00
2022-08-02T04:45:48.039Z,100.00
2022-08-02T04:48:17.140Z,100.00
2022-08-02T04:50:44.995Z,100.00
2022-08-02T04:53:12.772Z,100.00
2022-08-02T04:55:40.521Z,100.00
2022-08-02T04:58:30.167Z,100.00
2022-08-02T05:00:56.081Z,100.00
2022-08-02T05:03:25.238Z,100.00
2022-08-02T05:05:52.935Z,100.00
2022-08-02T05:08:20.669Z,100.00
2022-08-02T05:10:48.509Z,100.00
2022-08-02T05:13:16.307Z,100.00
2022-08-02T05:15:44.062Z,100.00
2022-08-02T05:18:12.317Z,100.00
2022-08-02T05:20:42.381Z,100.00
2022-08-02T05:23:10.083Z,100.00
2022-08-02T05:25:37.858Z,100.00
2022-08-02T05:28:11.025Z,100.00
2022-08-02T05:30:39.412Z,100.00
2022-08-02T05:33:07.183Z,100.00
2022-08-02T05:35:35.143Z,100.00
2022-08-02T05:38:04.252Z,100.00
2022-08-02T05:40:32.319Z,100.00
2022-08-02T05:43:00.082Z,100.00
2022-08-02T05:45:28.015Z,100.00
2022-08-02T05:47:55.886Z,100.00
2022-08-02T05:50:24.275Z,100.00
2022-08-02T05:52:59.250Z,100.00
2022-08-02T05:55:31.226Z,100.00
2022-08-02T05:58:07.409Z,100.00
2022-08-02T06:00:36.415Z,100.00
2022-08-02T06:03:21.795Z,100.00
2022-08-02T06:06:06.958Z,100.00
2022-08-02T06:08:39.382Z,100.00
2022-08-02T06:11:13.334Z,100.00
2022-08-02T06:13:42.174Z,100.00
2022-08-02T06:16:14.046Z,100.00
2022-08-02T06:18:44.030Z,100.00
2022-08-02T06:22:34.858Z,100.00
2022-08-02T06:24:00.265Z,100.00
2022-08-02T06:26:29.652Z,100.00
2022-08-02T06:28:59.009Z,100.00
2022-08-02T06:31:26.907Z,100.00
2022-08-02T06:33:54.653Z,100.00
2022-08-02T06:36:33.143Z,100.00
2022-08-02T06:39:04.644Z,100.00
2022-08-02T06:41:41.140Z,100.00
2022-08-02T06:44:45.052Z,100.00
2022-08-02T06:47:11.314Z,100.00
2022-08-02T06:49:52.879Z,100.00
2022-08-02T06:52:27.870Z,100.00
2022-08-02T06:54:56.838Z,100.00
2022-08-02T06:57:25.958Z,100.00
2022-08-02T06:59:53.740Z,100.00
2022-08-02T07:02:21.762Z,100.00
2022-08-02T07:04:49.614Z,100.00
2022-08-02T07:07:17.395Z,100.00
2022-08-02T07:09:56.388Z,100.00
2022-08-02T07:12:31.401Z,100.00
2022-08-02T07:14:59.677Z,100.00
2022-08-02T07:17:27.758Z,100.00
2022-08-02T07:19:55.570Z,100.00
2022-08-02T07:22:24.482Z,100.00
2022-08-02T07:24:52.734Z,100.00
2022-08-02T07:27:21.454Z,100.00
2022-08-02T07:29:50.548Z,100.00
2022-08-02T07:32:18.881Z,100.00
2022-08-02T07:34:51.159Z,100.00
2022-08-02T07:37:35.711Z,100.00
2022-08-02T07:40:13.396Z,100.00
2022-08-02T07:42:42.525Z,100.00
2022-08-02T07:45:12.401Z,100.00
2022-08-02T07:47:40.382Z,100.00
2022-08-02T07:50:09.771Z,100.00
2022-08-02T07:52:37.894Z,100.00
2022-08-02T07:55:06.900Z,100.00
2022-08-02T07:57:34.736Z,100.00
2022-08-02T08:00:02.580Z,100.00
2022-08-02T08:02:31.708Z,100.00
2022-08-02T08:04:59.428Z,100.00
2022-08-02T08:07:27.217Z,100.00
2022-08-02T08:09:56.569Z,100.00
2022-08-02T08:12:24.800Z,100.00
2022-08-02T08:14:52.684Z,100.00
2022-08-02T08:17:20.649Z,93.94
2022-08-02T08:19:53.242Z,87.84
2022-08-02T08:22:21.277Z,94.89
2022-08-02T08:24:49.116Z,90.64
2022-08-02T08:27:17.436Z,97.22
2022-08-02T08:29:46.209Z,88.54
2022-08-02T08:32:17.663Z,91.20
2022-08-02T08:34:46.418Z,89.50
2022-08-02T08:37:17.701Z,78.19
2022-08-02T08:39:56.224Z,73.60
2022-08-02T08:42:25.823Z,68.58
2022-08-02T08:44:53.632Z,68.23
2022-08-02T08:47:24.549Z,68.43
2022-08-02T08:49:56.806Z,65.46
2022-08-02T08:52:28.190Z,63.94
2022-08-02T08:54:57.495Z,58.82
2022-08-02T08:57:30.658Z,54.72
2022-08-02T08:59:58.592Z,54.51
2022-08-02T09:02:28.451Z,56.79
2022-08-02T09:04:59.293Z,56.63
2022-08-02T09:07:28.451Z,57.15
2022-08-02T09:09:58.646Z,61.16
2022-08-02T09:12:26.679Z,61.40
2022-08-02T09:14:54.430Z,56.12
2022-08-02T09:17:22.342Z,56.59
2022-08-02T09:20:07.845Z,55.84
2022-08-02T09:22:37.067Z,58.80
2022-08-02T09:25:06.190Z,58.01
2022-08-02T09:27:38.088Z,58.49
2022-08-02T09:30:16.679Z,54.52
2022-08-02T09:32:47.970Z,51.65
2022-08-02T09:36:06.103Z,53.65
2022-08-02T09:38:22.221Z,52.38
2022-08-02T09:40:52.207Z,55.14
2022-08-02T09:43:20.848Z,49.61
2022-08-02T09:45:48.605Z,47.29
2022-08-02T09:48:16.326Z,47.16
2022-08-02T09:50:46.327Z,52.26
2022-08-02T09:53:14.697Z,50.76
2022-08-02T09:55:43.882Z,49.57
2022-08-02T09:58:21.384Z,48.88
2022-08-02T10:00:56.455Z,51.32
2022-08-02T10:03:26.768Z,48.99
2022-08-02T10:06:04.312Z,52.04
2022-08-02T10:08:33.814Z,51.60
2022-08-02T10:11:03.497Z,53.85
2022-08-02T10:13:33.072Z,52.21
2022-08-02T10:16:02.458Z,49.62
2022-08-02T10:18:39.952Z,52.56
2022-08-02T10:21:11.378Z,48.45
2022-08-02T10:23:41.086Z,49.35
2022-08-02T10:26:10.937Z,47.23
2022-08-02T10:28:38.887Z,46.90
2022-08-02T10:31:08.653Z,44.80
2022-08-02T10:33:39.308Z,46.16
2022-08-02T10:36:10.041Z,48.44
2022-08-02T10:38:38.637Z,44.76
2022-08-02T10:41:07.998Z,45.71
2022-08-02T10:43:45.804Z,45.28
2022-08-02T10:46:24.274Z,50.49
2022-08-02T10:52:07.483Z,49.93
2022-08-02T10:54:37.875Z,46.81
2022-08-02T10:57:16.310Z,48.60
2022-08-02T10:59:45.891Z,46.99
2022-08-02T11:02:15.032Z,46.73
2022-08-02T11:05:16.569Z,47.33
2022-08-02T11:07:47.882Z,46.60
2022-08-02T11:10:38.280Z,43.53
2022-08-02T11:13:08.902Z,43.67
2022-08-02T11:15:59.029Z,41.47
2022-08-02T11:18:59.733Z,45.26
2022-08-02T11:21:28.873Z,44.03
2022-08-02T11:23:57.437Z,42.55
2022-08-02T11:26:45.355Z,39.37
2022-08-02T11:29:15.890Z,41.89
2022-08-02T11:31:46.611Z,41.62
2022-08-02T11:34:36.373Z,42.24
2022-08-02T11:37:03.128Z,39.75
2022-08-02T11:39:30.950Z,40.80
2022-08-02T11:42:00.523Z,37.54
2022-08-02T11:44:30.163Z,35.71
2022-08-02T11:47:00.670Z,36.68
2022-08-02T11:49:29.163Z,38.24
2022-08-02T11:52:01.021Z,36.84
2022-08-02T11:54:32.372Z,33.36
2022-08-02T11:57:20.268Z,32.51
2022-08-02T11:59:49.672Z,33.97
2022-08-02T12:02:19.629Z,34.71
2022-08-02T12:04:58.010Z,35.53
2022-08-02T12:07:35.324Z,33.58
2022-08-02T12:10:06.884Z,32.33
2022-08-02T12:12:34.933Z,32.19
2022-08-02T12:15:02.715Z,32.61
2022-08-02T12:17:49.358Z,34.00
2022-08-02T12:20:17.622Z,31.72
2022-08-02T12:22:45.452Z,33.22
2022-08-02T12:25:33.532Z,32.59
2022-08-02T12:28:17.755Z,32.30
2022-08-02T12:30:57.997Z,34.86
2022-08-02T12:33:28.876Z,34.86
2022-08-02T12:35:58.240Z,33.70
2022-08-02T12:38:25.957Z,31.68
2022-08-02T12:40:54.228Z,33.06
2022-08-02T12:43:24.732Z,31.22
2022-08-02T12:45:53.276Z,32.38
2022-08-02T12:48:39.136Z,32.14
2022-08-02T12:51:20.958Z,31.22
2022-08-02T12:53:59.621Z,34.04
2022-08-02T12:56:29.810Z,30.62
2022-08-02T12:58:57.739Z,32.20
2022-08-02T13:01:27.467Z,29.75
2022-08-02T13:04:09.811Z,33.66
2022-08-02T13:06:44.392Z,30.28
2022-08-02T13:09:18.005Z,30.41
2022-08-02T13:11:46.487Z,30.38
2022-08-02T13:14:15.405Z,30.91
2022-08-02T13:16:44.986Z,28.51
2022-08-02T13:19:15.472Z,28.78
2022-08-02T13:22:01.271Z,26.54
2022-08-02T13:24:41.023Z,25.89
2022-08-02T13:27:22.300Z,27.29
2022-08-02T13:29:50.685Z,27.08
2022-08-02T13:32:19.008Z,28.42
2022-08-02T13:34:48.696Z,26.68
2022-08-02T13:37:16.679Z,24.00
2022-08-02T13:40:05.556Z,26.84
2022-08-02T13:42:33.277Z,27.36
2022-08-02T13:45:11.781Z,29.16
2022-08-02T13:48:04.244Z,27.77
2022-08-02T13:50:30.799Z,28.71
2022-08-02T13:52:58.588Z,27.20
2022-08-02T13:55:26.366Z,25.94
2022-08-02T13:57:54.531Z,25.12
2022-08-02T14:00:35.615Z,25.29
2022-08-02T14:03:05.330Z,27.30
2022-08-02T14:05:39.655Z,28.07
2022-08-02T14:08:16.861Z,28.97
2022-08-02T14:10:45.082Z,28.05
2022-08-02T14:13:12.873Z,29.87
2022-08-02T14:15:40.685Z,29.60
2022-08-02T14:18:08.435Z,28.69
2022-08-02T14:20:37.627Z,27.07
2022-08-02T14:23:05.413Z,28.75
2022-08-02T14:25:33.276Z,29.06
2022-08-02T14:28:01.081Z,28.04
2022-08-02T14:30:28.856Z,29.16
2022-08-02T14:32:57.324Z,28.98
2022-08-02T14:35:25.093Z,26.08
2022-08-02T14:37:54.394Z,26.64
2022-08-02T14:40:27.778Z,30.15
2022-08-02T14:42:56.107Z,28.71
2022-08-02T14:45:26.069Z,29.58
2022-08-02T14:48:05.167Z,31.29
2022-08-02T14:50:33.753Z,30.81
2022-08-02T14:53:02.973Z,30.22
2022-08-02T14:55:30.669Z,29.93
2022-08-02T14:57:58.444Z,31.34
2022-08-02T15:00:26.201Z,33.19
2022-08-02T15:02:56.681Z,33.79
2022-08-02T15:05:24.457Z,31.47
2022-08-02T15:07:52.249Z,31.46
2022-08-02T15:10:22.218Z,34.20
2022-08-02T15:12:49.967Z,32.77
2022-08-02T15:15:18.100Z,31.66
2022-08-02T15:17:45.822Z,33.14
2022-08-02T15:20:25.801Z,32.36
2022-08-02T15:22:54.092Z,33.30
2022-08-02T15:25:23.575Z,31.88
2022-08-02T15:27:51.338Z,33.50
2022-08-02T15:30:19.217Z,34.16
2022-08-02T15:32:53.479Z,32.82
2022-08-02T15:35:21.786Z,32.83
2022-08-02T15:37:49.691Z,35.83
2022-08-02T15:40:17.576Z,35.48
2022-08-02T15:42:46.769Z,35.23
2022-08-02T15:45:15.761Z,38.81
2022-08-02T15:47:50.459Z,38.16
2022-08-02T15:50:18.857Z,40.32
2022-08-02T15:52:46.627Z,38.57
2022-08-02T15:55:14.430Z,43.11
2022-08-02T15:57:42.170Z,36.97
2022-08-02T16:00:18.084Z,40.00
2022-08-02T16:02:47.493Z,42.64
2022-08-02T16:05:17.617Z,41.74
2022-08-02T16:07:45.495Z,39.09
2022-08-02T16:10:13.337Z,44.65
2022-08-02T16:12:41.169Z,46.07
2022-08-02T16:15:12.516Z,39.06
2022-08-02T16:17:48.558Z,43.27
2022-08-02T16:20:21.916Z,43.83
2022-08-02T16:22:49.651Z,45.05
2022-08-02T16:25:17.716Z,48.01
2022-08-02T16:27:59.284Z,43.75
2022-08-02T16:30:34.845Z,47.06
2022-08-02T16:33:02.788Z,45.60
2022-08-02T16:35:30.515Z,46.01
2022-08-02T16:37:58.358Z,45.67
2022-08-02T16:40:26.452Z,46.34
2022-08-02T16:42:54.177Z,44.59
2022-08-02T16:45:22.804Z,47.84
2022-08-02T16:47:56.465Z,44.76
2022-08-02T16:50:29.302Z,46.91
2022-08-02T16:52:58.534Z,48.54
2022-08-02T16:55:29.335Z,50.72
2022-08-02T16:57:58.874Z,53.56
2022-08-02T17:00:26.927Z,51.19
2022-08-02T17:02:59.648Z,48.33
2022-08-02T17:05:29.754Z,50.21
2022-08-02T17:08:17.277Z,50.72
2022-08-02T17:10:45.557Z,53.48
2022-08-02T17:13:13.330Z,54.40
2022-08-02T17:16:07.641Z,56.13
2022-08-02T17:18:30.845Z,52.64
2022-08-02T17:20:58.981Z,55.68
2022-08-02T17:24:04.498Z,56.61
2022-08-02T17:26:14.725Z,57.08
2022-08-02T17:29:06.935Z,58.43
2022-08-02T17:31:42.400Z,59.10
2022-08-02T17:34:12.909Z,62.09
2022-08-02T17:36:44.600Z,58.10
2022-08-02T17:39:17.397Z,60.84
2022-08-02T17:41:48.847Z,61.00
2022-08-02T17:44:36.997Z,64.77
2022-08-02T17:47:07.046Z,65.94
2022-08-02T17:49:42.640Z,63.77
2022-08-02T17:52:47.934Z,59.57
2022-08-02T17:54:59.600Z,61.96
2022-08-02T17:57:55.603Z,59.65
2022-08-02T18:00:16.444Z,60.15
2022-08-02T18:02:50.524Z,61.77
2022-08-02T18:05:39.374Z,65.05
2022-08-02T18:08:09.839Z,67.49
2022-08-02T18:10:39.297Z,64.46
2022-08-02T18:13:07.230Z,74.18
2022-08-02T18:15:35.701Z,66.59
2022-08-02T18:18:03.796Z,66.97
2022-08-02T18:20:33.165Z,66.43
2022-08-02T18:23:01.230Z,67.17
2022-08-02T18:25:37.267Z,72.66
2022-08-02T18:28:12.581Z,73.01
2022-08-02T18:30:40.635Z,72.48
2022-08-02T18:33:59.212Z,69.15
2022-08-02T18:35:57.881Z,75.38
2022-08-02T18:38:26.817Z,72.26
2022-08-02T18:40:55.694Z,71.98
2022-08-02T18:46:15.414Z,73.46
2022-08-02T18:48:46.674Z,71.56
2022-08-02T18:51:19.184Z,67.65
2022-08-02T18:53:50.910Z,69.71
2022-08-02T18:56:24.686Z,73.20
2022-08-02T18:58:53.290Z,77.29
2022-08-02T19:01:33.554Z,71.74
2022-08-02T19:04:04.636Z,76.85
2022-08-02T19:06:33.788Z,73.20
2022-08-02T19:09:11.110Z,74.16
2022-08-02T19:11:47.205Z,75.99
2022-08-02T19:14:19.365Z,74.27
2022-08-02T19:16:55.225Z,84.81
2022-08-02T19:19:23.309Z,74.26
2022-08-02T19:22:15.876Z,77.03
2022-08-02T19:24:51.639Z,77.09
2022-08-02T19:27:26.206Z,78.96
2022-08-02T19:30:02.278Z,79.98
2022-08-02T19:32:42.721Z,79.77
2022-08-02T19:35:30.428Z,81.17
2022-08-02T19:38:09.606Z,81.83
2022-08-02T19:40:38.657Z,86.81
2022-08-02T19:44:26.076Z,85.88
2022-08-02T19:45:57.183Z,86.26
2022-08-02T19:48:27.219Z,87.18
2022-08-02T19:51:00.529Z,88.93
2022-08-02T19:53:47.726Z,89.01
2022-08-02T19:56:20.083Z,87.21
2022-08-02T19:58:50.250Z,86.79
2022-08-02T20:01:26.961Z,87.54
2022-08-02T20:04:34.917Z,88.73
2022-08-02T20:07:04.829Z,89.42
2022-08-02T20:09:47.072Z,93.36
2022-08-02T20:12:15.376Z,94.17
2022-08-02T20:14:50.801Z,100.00
2022-08-02T20:17:20.840Z,100.00
2022-08-02T20:20:09.063Z,97.07
2022-08-02T20:22:58.666Z,100.00
2022-08-02T20:25:29.091Z,96.69
2022-08-02T20:27:57.111Z,95.91
2022-08-02T20:30:25.474Z,100.00
2022-08-02T20:32:58.873Z,97.38
2022-08-02T20:35:30.556Z,96.44
2022-08-02T20:38:02.883Z,99.68
2022-08-02T20:40:34.661Z,100.00
2022-08-02T20:43:02.841Z,100.00
2022-08-02T20:45:35.645Z,100.00
2022-08-02T20:48:03.587Z,100.00
2022-08-02T20:50:52.156Z,100.00
2022-08-02T20:53:24.103Z,100.00
2022-08-02T20:56:00.332Z,100.00
2022-08-02T20:58:28.192Z,100.00
2022-08-02T21:01:00.004Z,100.00
2022-08-02T21:03:39.439Z,100.00
2022-08-02T21:06:09.377Z,100.00
2022-08-02T21:08:38.380Z,100.00
2022-08-02T21:11:09.208Z,100.00
2022-08-02T21:13:47.105Z,100.00
2022-08-02T21:16:28.102Z,100.00
2022-08-02T21:19:00.234Z,100.00
2022-08-02T21:21:28.329Z,100.00
2022-08-02T21:23:57.609Z,100.00
2022-08-02T21:26:30.459Z,100.00
2022-08-02T21:29:00.962Z,100.00
2022-08-02T21:31:33.689Z,100.00
2022-08-02T21:34:04.034Z,100.00
2022-08-02T21:36:49.363Z,100.00
2022-08-02T21:39:18.433Z,100.00
2022-08-02T21:41:47.587Z,100.00
2022-08-02T21:44:16.345Z,100.00
2022-08-02T21:46:45.462Z,100.00
2022-08-02T21:49:13.819Z,100.00
2022-08-02T21:51:43.603Z,100.00
2022-08-02T21:54:19.563Z,100.00
2022-08-02T21:56:51.898Z,100.00
2022-08-02T22:02:09.169Z,100.00
2022-08-02T22:04:36.901Z,100.00
2022-08-02T22:07:04.674Z,100.00
2022-08-02T22:09:42.839Z,100.00
2022-08-02T22:12:17.981Z,100.00
2022-08-02T22:14:49.489Z,100.00
2022-08-02T22:17:50.655Z,100.00
2022-08-02T22:20:12.353Z,100.00
2022-08-02T22:22:40.618Z,100.00
2022-08-02T22:25:10.070Z,100.00
2022-08-02T22:28:36.192Z,100.00
2022-08-02T22:30:39.164Z,100.00
2022-08-02T22:33:33.148Z,100.00
2022-08-02T22:36:01.934Z,100.00
2022-08-02T22:38:29.987Z,100.00
2022-08-02T22:40:57.694Z,100.00
2022-08-02T22:43:26.779Z,100.00
2022-08-02T22:45:59.163Z,100.00
2022-08-02T22:48:27.382Z,100.00
2022-08-02T22:50:55.447Z,100.00
2022-08-02T22:53:24.716Z,100.00
2022-08-02T22:56:03.881Z,100.00
2022-08-02T22:58:33.817Z,100.00
2022-08-02T22:58:45.272Z,72.08
2022-08-02T22:59:03.936Z,100.00
2022-08-02T23:01:01.852Z,100.00
2022-08-02T23:03:29.809Z,100.00
2022-08-02T23:05:57.969Z,100.00
2022-08-02T23:08:26.081Z,100.00
2022-08-02T23:10:53.996Z,100.00
2022-08-02T23:13:25.343Z,100.00
2022-08-02T23:16:14.752Z,100.00
2022-08-02T23:18:59.970Z,100.00
2022-08-02T23:22:01.115Z,100.00
2022-08-02T23:24:22.364Z,100.00
2022-08-02T23:26:50.113Z,100.00
2022-08-02T23:29:17.809Z,100.00
2022-08-02T23:31:46.874Z,100.00
2022-08-02T23:34:14.586Z,100.00
2022-08-02T23:36:42.268Z,100.00
2022-08-02T23:39:10.125Z,100.00
2022-08-02T23:41:37.840Z,100.00
2022-08-02T23:44:14.511Z,100.00
2022-08-02T23:46:43.105Z,100.00
2022-08-02T23:49:13.681Z,100.00
2022-08-02T23:51:41.468Z,100.00
2022-08-02T23:54:09.364Z,100.00
2022-08-02T23:56:37.167Z,100.00
2022-08-02T23:59:05.444Z,100.00
